createdAt,value
2018-03-14T00:00:24.103Z,44.63
2018-03-14T00:01:20.150Z,44.61
2018-03-14T00:02:20.111Z,44.68
2018-03-14T00:03:20.449Z,44.63
2018-03-14T00:04:20.192Z,44.55
2018-03-14T00:05:20.155Z,44.63
2018-03-14T00:06:20.145Z,44.62
2018-03-14T00:07:20.123Z,44.57
2018-03-14T00:08:25.386Z,44.68
2018-03-14T00:09:20.098Z,44.65
2018-03-14T00:10:20.163Z,44.53
2018-03-14T00:11:20.154Z,44.68
2018-03-14T00:12:20.181Z,44.57
2018-03-14T00:13:20.164Z,44.52
2018-03-14T00:14:20.151Z,44.66
2018-03-14T00:15:20.134Z,44.6
2018-03-14T00:16:26.464Z,44.58
2018-03-14T00:17:20.146Z,44.67
2018-03-14T00:18:20.124Z,44.6
2018-03-14T00:19:20.848Z,44.55
2018-03-14T00:20:20.151Z,44.65
2018-03-14T00:21:20.164Z,44.62
2018-03-14T00:22:20.183Z,44.57
2018-03-14T00:23:20.936Z,44.68
2018-03-14T00:24:20.133Z,44.61
2018-03-14T00:25:20.126Z,44.54
2018-03-14T00:26:20.230Z,44.61
2018-03-14T00:27:20.174Z,44.62
2018-03-14T00:28:20.164Z,44.49
2018-03-14T00:29:20.543Z,44.7
2018-03-14T00:30:20.112Z,44.58
2018-03-14T00:31:21.838Z,44.58
2018-03-14T00:32:20.200Z,44.7
2018-03-14T00:33:20.189Z,44.68
2018-03-14T00:34:20.156Z,44.61
2018-03-14T00:35:20.169Z,44.74
2018-03-14T00:36:20.188Z,44.62
2018-03-14T00:37:20.133Z,44.54
2018-03-14T00:38:20.143Z,44.68
2018-03-14T00:39:22.660Z,44.65
2018-03-14T00:40:20.192Z,44.53
2018-03-14T00:41:20.125Z,44.66
2018-03-14T00:42:20.146Z,44.63
2018-03-14T00:43:20.191Z,44.56
2018-03-14T00:44:20.145Z,44.68
2018-03-14T00:45:20.463Z,44.63
2018-03-14T00:46:20.156Z,44.58
2018-03-14T00:47:23.696Z,44.62
2018-03-14T00:48:20.166Z,44.65
2018-03-14T00:49:20.153Z,44.58
2018-03-14T00:50:20.155Z,44.7
2018-03-14T00:51:20.141Z,44.67
2018-03-14T00:52:20.176Z,44.6
2018-03-14T00:53:20.160Z,44.73
2018-03-14T00:54:20.168Z,44.73
2018-03-14T00:55:25.427Z,44.61
2018-03-14T00:56:20.216Z,44.74
2018-03-14T00:57:20.198Z,44.65
2018-03-14T00:58:20.131Z,44.54
2018-03-14T00:59:20.152Z,44.73
2018-03-14T01:00:20.167Z,44.64
2018-03-14T01:01:20.436Z,44.57
2018-03-14T01:02:20.182Z,44.71
2018-03-14T01:03:20.204Z,44.69
2018-03-14T01:04:20.191Z,44.64
2018-03-14T01:05:20.099Z,44.71
2018-03-14T01:06:20.157Z,44.64
2018-03-14T01:07:20.140Z,44.53
2018-03-14T01:08:20.215Z,44.77
2018-03-14T01:09:20.136Z,44.66
2018-03-14T01:10:22.413Z,44.56
2018-03-14T01:11:20.138Z,44.7
2018-03-14T01:12:20.181Z,44.69
2018-03-14T01:13:20.142Z,44.56
2018-03-14T01:14:20.158Z,44.72
2018-03-14T01:15:20.174Z,44.74
2018-03-14T01:16:20.174Z,44.63
2018-03-14T01:17:20.410Z,44.79
2018-03-14T01:18:24.682Z,44.71
2018-03-14T01:19:20.201Z,44.57
2018-03-14T01:20:20.139Z,44.7
2018-03-14T01:21:20.654Z,44.68
2018-03-14T01:22:20.504Z,44.59
2018-03-14T01:23:20.198Z,44.68
2018-03-14T01:24:20.121Z,44.65
2018-03-14T01:25:20.128Z,44.64
2018-03-14T01:26:25.273Z,44.75
2018-03-14T01:27:20.165Z,44.69
2018-03-14T01:28:20.167Z,44.58
2018-03-14T01:29:20.204Z,44.75
2018-03-14T01:30:20.101Z,44.66
2018-03-14T01:31:20.124Z,44.66
2018-03-14T01:32:20.101Z,44.72
2018-03-14T01:33:20.135Z,44.71
2018-03-14T01:34:22.714Z,44.6
2018-03-14T01:35:20.116Z,44.75
2018-03-14T01:36:20.184Z,44.67
2018-03-14T01:37:20.176Z,44.61
2018-03-14T01:38:20.168Z,44.71
2018-03-14T01:39:20.190Z,44.69
2018-03-14T01:40:20.149Z,44.63
2018-03-14T01:41:21.082Z,44.78
2018-03-14T01:42:20.107Z,44.73
2018-03-14T01:43:20.110Z,44.56
2018-03-14T01:44:20.105Z,44.7
2018-03-14T01:45:20.114Z,44.69
2018-03-14T01:46:20.133Z,44.64
2018-03-14T01:47:20.102Z,44.77
2018-03-14T01:48:20.142Z,44.66
2018-03-14T01:49:23.370Z,44.68
2018-03-14T01:50:20.199Z,44.81
2018-03-14T01:51:20.083Z,44.79
2018-03-14T01:52:20.139Z,44.61
2018-03-14T01:53:20.185Z,44.75
2018-03-14T01:54:20.141Z,44.72
2018-03-14T01:55:20.162Z,44.62
2018-03-14T01:56:20.134Z,44.7
2018-03-14T01:57:23.772Z,44.66
2018-03-14T01:58:20.124Z,44.59
2018-03-14T01:59:20.080Z,44.8
2018-03-14T02:00:20.119Z,44.72
2018-03-14T02:01:20.128Z,44.64
2018-03-14T02:02:20.125Z,44.73
2018-03-14T02:03:20.071Z,44.69
2018-03-14T02:04:21.192Z,44.62
2018-03-14T02:05:20.109Z,44.74
2018-03-14T02:06:20.094Z,44.75
2018-03-14T02:07:20.119Z,44.73
2018-03-14T02:08:20.154Z,44.79
2018-03-14T02:09:20.099Z,44.72
2018-03-14T02:10:20.117Z,44.68
2018-03-14T02:11:20.102Z,44.78
2018-03-14T02:12:22.400Z,44.78
2018-03-14T02:13:20.095Z,44.64
2018-03-14T02:14:20.140Z,44.69
2018-03-14T02:15:20.370Z,44.72
2018-03-14T02:16:20.114Z,44.64
2018-03-14T02:17:20.128Z,44.77
2018-03-14T02:18:20.097Z,44.72
2018-03-14T02:19:20.134Z,44.64
2018-03-14T02:20:24.704Z,44.79
2018-03-14T02:21:20.119Z,44.66
2018-03-14T02:22:20.204Z,44.66
2018-03-14T02:23:20.133Z,44.79
2018-03-14T02:24:20.109Z,44.72
2018-03-14T02:25:20.147Z,44.59
2018-03-14T02:26:20.166Z,44.81
2018-03-14T02:27:20.148Z,44.72
2018-03-14T02:28:24.596Z,44.61
2018-03-14T02:29:20.087Z,44.85
2018-03-14T02:30:20.162Z,44.71
2018-03-14T02:31:20.118Z,44.68
2018-03-14T02:32:20.156Z,44.83
2018-03-14T02:33:20.056Z,44.81
2018-03-14T02:34:20.130Z,44.73
2018-03-14T02:35:23.149Z,44.79
2018-03-14T02:36:20.127Z,44.82
2018-03-14T02:37:20.108Z,44.76
2018-03-14T02:38:20.122Z,44.83
2018-03-14T02:39:20.094Z,44.75
2018-03-14T02:40:20.098Z,44.68
2018-03-14T02:41:20.383Z,44.81
2018-03-14T02:42:20.177Z,44.77
2018-03-14T02:43:24.816Z,44.71
2018-03-14T02:44:20.099Z,44.79
2018-03-14T02:45:20.013Z,44.78
2018-03-14T02:46:19.999Z,44.75
2018-03-14T02:47:19.993Z,44.81
2018-03-14T02:48:19.987Z,44.83
2018-03-14T02:49:19.994Z,44.73
2018-03-14T02:50:19.979Z,44.79
2018-03-14T02:51:19.975Z,44.81
2018-03-14T02:52:20.001Z,44.75
2018-03-14T02:53:20.237Z,44.8
2018-03-14T02:54:19.961Z,44.83
2018-03-14T02:55:19.974Z,44.77
2018-03-14T02:56:19.980Z,44.85
2018-03-14T02:57:19.968Z,44.8
2018-03-14T02:58:20.007Z,44.8
2018-03-14T02:59:19.963Z,44.83
2018-03-14T03:00:19.971Z,44.8
2018-03-14T03:01:19.982Z,44.77
2018-03-14T03:02:19.973Z,44.8
2018-03-14T03:03:19.958Z,44.79
2018-03-14T03:04:20.004Z,44.71
2018-03-14T03:05:19.950Z,44.82
2018-03-14T03:06:19.956Z,44.88
2018-03-14T03:07:19.988Z,44.79
2018-03-14T03:08:19.969Z,44.85
2018-03-14T03:09:19.984Z,44.82
2018-03-14T03:10:19.965Z,44.73
2018-03-14T03:11:19.986Z,44.78
2018-03-14T03:12:20.004Z,44.8
2018-03-14T03:13:19.960Z,44.76
2018-03-14T03:14:20.011Z,44.83
2018-03-14T03:15:19.957Z,44.84
2018-03-14T03:16:19.958Z,44.76
2018-03-14T03:17:19.984Z,44.84
2018-03-14T03:18:19.960Z,44.84
2018-03-14T03:19:20.005Z,44.77
2018-03-14T03:20:19.951Z,44.92
2018-03-14T03:21:19.965Z,44.83
2018-03-14T03:22:20.066Z,44.87
2018-03-14T03:23:20.053Z,44.91
2018-03-14T03:24:19.949Z,44.82
2018-03-14T03:25:19.997Z,44.82
2018-03-14T03:26:19.972Z,44.91
2018-03-14T03:27:19.956Z,44.89
2018-03-14T03:28:19.976Z,44.86
2018-03-14T03:29:19.964Z,44.89
2018-03-14T03:30:20.013Z,44.85
2018-03-14T03:31:19.983Z,44.69
2018-03-14T03:32:20.004Z,44.86
2018-03-14T03:33:19.983Z,44.9
2018-03-14T03:34:19.972Z,44.83
2018-03-14T03:35:19.982Z,44.84
2018-03-14T03:36:19.962Z,44.85
2018-03-14T03:37:19.969Z,44.88
2018-03-14T03:38:19.955Z,44.84
2018-03-14T03:39:19.985Z,44.79
2018-03-14T03:40:19.969Z,44.81
2018-03-14T03:41:19.951Z,44.97
2018-03-14T03:42:19.981Z,44.87
2018-03-14T03:43:19.958Z,44.79
2018-03-14T03:44:19.989Z,44.89
2018-03-14T03:45:19.933Z,44.83
2018-03-14T03:46:19.973Z,44.82
2018-03-14T03:47:19.971Z,44.89
2018-03-14T03:48:19.981Z,44.88
2018-03-14T03:49:20.005Z,44.85
2018-03-14T03:50:19.957Z,44.92
2018-03-14T03:51:19.988Z,44.87
2018-03-14T03:52:19.972Z,44.85
2018-03-14T03:53:19.927Z,44.94
2018-03-14T03:54:19.994Z,44.86
2018-03-14T03:55:19.969Z,44.86
2018-03-14T03:56:19.956Z,44.89
2018-03-14T03:57:19.998Z,44.84
2018-03-14T03:58:19.963Z,44.89
2018-03-14T03:59:19.979Z,44.94
2018-03-14T04:00:19.965Z,44.89
2018-03-14T04:01:19.968Z,44.84
2018-03-14T04:02:19.970Z,44.94
2018-03-14T04:03:19.924Z,44.86
2018-03-14T04:04:19.976Z,44.87
2018-03-14T04:05:19.965Z,44.92
2018-03-14T04:06:20.000Z,44.81
2018-03-14T04:07:19.962Z,44.88
2018-03-14T04:08:19.966Z,44.91
2018-03-14T04:09:19.994Z,44.96
2018-03-14T04:10:19.954Z,44.88
2018-03-14T04:11:19.939Z,44.96
2018-03-14T04:12:19.959Z,44.81
2018-03-14T04:13:19.939Z,44.85
2018-03-14T04:14:19.972Z,44.98
2018-03-14T04:15:19.940Z,44.9
2018-03-14T04:16:19.957Z,44.82
2018-03-14T04:17:19.940Z,44.92
2018-03-14T04:18:19.961Z,44.76
2018-03-14T04:19:20.246Z,44.84
2018-03-14T04:20:19.924Z,44.9
2018-03-14T04:21:19.938Z,44.83
2018-03-14T04:22:19.939Z,44.8
2018-03-14T04:23:19.966Z,44.91
2018-03-14T04:24:19.967Z,44.85
2018-03-14T04:25:19.936Z,44.81
2018-03-14T04:26:19.954Z,44.93
2018-03-14T04:27:19.928Z,44.88
2018-03-14T04:28:19.960Z,44.85
2018-03-14T04:29:19.926Z,44.91
2018-03-14T04:30:19.953Z,44.92
2018-03-14T04:31:19.986Z,44.81
2018-03-14T04:32:19.967Z,44.82
2018-03-14T04:33:19.993Z,44.94
2018-03-14T04:34:19.929Z,44.9
2018-03-14T04:35:19.947Z,44.92
2018-03-14T04:36:19.991Z,44.8
2018-03-14T04:37:19.995Z,44.79
2018-03-14T04:38:19.951Z,44.88
2018-03-14T04:39:19.957Z,44.87
2018-03-14T04:40:19.945Z,44.75
2018-03-14T04:41:20.004Z,44.92
2018-03-14T04:42:19.994Z,44.82
2018-03-14T04:43:19.949Z,44.73
2018-03-14T04:44:19.962Z,44.82
2018-03-14T04:45:19.952Z,44.81
2018-03-14T04:46:19.943Z,44.8
2018-03-14T04:47:19.974Z,44.83
2018-03-14T04:48:19.947Z,44.82
2018-03-14T04:49:19.964Z,44.69
2018-03-14T04:50:19.967Z,44.85
2018-03-14T04:51:19.928Z,44.78
2018-03-14T04:52:20.170Z,44.74
2018-03-14T04:53:19.929Z,44.85
2018-03-14T04:54:19.942Z,44.7
2018-03-14T04:55:19.937Z,44.63
2018-03-14T04:56:20.245Z,44.77
2018-03-14T04:57:20.072Z,44.64
2018-03-14T04:58:19.946Z,44.66
2018-03-14T04:59:19.946Z,44.77
2018-03-14T05:00:19.977Z,44.68
2018-03-14T05:01:19.933Z,44.63
2018-03-14T05:02:20.411Z,44.73
2018-03-14T05:03:19.989Z,44.58
2018-03-14T05:04:19.942Z,44.52
2018-03-14T05:05:19.943Z,44.66
2018-03-14T05:06:19.963Z,44.54
2018-03-14T05:07:19.984Z,44.53
2018-03-14T05:08:19.914Z,44.55
2018-03-14T05:09:19.980Z,44.47
2018-03-14T05:10:19.944Z,44.44
2018-03-14T05:11:19.948Z,44.49
2018-03-14T05:12:19.969Z,44.34
2018-03-14T05:13:19.950Z,44.37
2018-03-14T05:14:19.989Z,44.44
2018-03-14T05:15:19.977Z,44.35
2018-03-14T05:16:19.928Z,44.34
2018-03-14T05:17:19.896Z,44.37
2018-03-14T05:18:19.977Z,44.22
2018-03-14T05:19:19.976Z,44.31
2018-03-14T05:20:19.922Z,44.3
2018-03-14T05:21:19.945Z,44.26
2018-03-14T05:22:19.957Z,44.23
2018-03-14T05:23:20.025Z,44.29
2018-03-14T05:24:20.176Z,44.1
2018-03-14T05:25:19.934Z,44.22
2018-03-14T05:26:19.956Z,44.28
2018-03-14T05:27:19.945Z,44
2018-03-14T05:28:19.970Z,44.07
2018-03-14T05:29:19.969Z,44.18
2018-03-14T05:30:19.933Z,44.04
2018-03-14T05:31:19.931Z,44.18
2018-03-14T05:32:19.995Z,44.3
2018-03-14T05:33:19.957Z,44.15
2018-03-14T05:34:19.940Z,44.16
2018-03-14T05:35:19.959Z,44.2
2018-03-14T05:36:19.930Z,44.12
2018-03-14T05:37:19.917Z,44.15
2018-03-14T05:38:19.954Z,44.21
2018-03-14T05:39:19.941Z,44.14
2018-03-14T05:40:19.943Z,44.11
2018-03-14T05:41:19.953Z,44.12
2018-03-14T05:42:19.935Z,44.12
2018-03-14T05:43:19.934Z,44.25
2018-03-14T05:44:19.917Z,44.05
2018-03-14T05:45:19.965Z,44.04
2018-03-14T05:46:19.927Z,44.14
2018-03-14T05:47:19.936Z,44.34
2018-03-14T05:48:19.938Z,44.31
2018-03-14T05:49:19.920Z,44.27
2018-03-14T05:50:19.938Z,44.37
2018-03-14T05:51:19.930Z,44.26
2018-03-14T05:52:19.921Z,44.35
2018-03-14T05:53:19.919Z,44.3
2018-03-14T05:54:19.912Z,44.19
2018-03-14T05:55:20.171Z,44.21
2018-03-14T05:56:19.941Z,44.35
2018-03-14T05:57:19.920Z,44.19
2018-03-14T05:58:19.932Z,44.25
2018-03-14T05:59:19.888Z,44.26
2018-03-14T06:00:19.960Z,44.01
2018-03-14T06:01:19.927Z,44.1
2018-03-14T06:02:19.914Z,44.26
2018-03-14T06:03:19.902Z,43.99
2018-03-14T06:04:19.946Z,44.09
2018-03-14T06:05:20.279Z,44.18
2018-03-14T06:06:19.909Z,44
2018-03-14T06:07:19.921Z,44.14
2018-03-14T06:08:19.948Z,44.17
2018-03-14T06:09:19.935Z,44.07
2018-03-14T06:10:20.013Z,44.15
2018-03-14T06:11:19.906Z,44.22
2018-03-14T06:12:19.936Z,44.12
2018-03-14T06:13:19.919Z,44.05
2018-03-14T06:14:19.933Z,44.23
2018-03-14T06:15:19.950Z,44
2018-03-14T06:16:20.116Z,44.15
2018-03-14T06:17:19.899Z,44.15
2018-03-14T06:18:19.929Z,44.11
2018-03-14T06:19:19.926Z,44.11
2018-03-14T06:20:19.947Z,44.11
2018-03-14T06:21:19.909Z,44.04
2018-03-14T06:22:19.944Z,44.05
2018-03-14T06:23:19.889Z,44.19
2018-03-14T06:24:19.913Z,44.12
2018-03-14T06:25:19.901Z,44.08
2018-03-14T06:26:19.916Z,44.19
2018-03-14T06:27:19.896Z,44.16
2018-03-14T06:28:19.913Z,44.09
2018-03-14T06:29:19.929Z,44.15
2018-03-14T06:30:19.934Z,44.16
2018-03-14T06:31:19.918Z,44.19
2018-03-14T06:32:19.910Z,44.23
2018-03-14T06:33:19.892Z,44.09
2018-03-14T06:34:19.912Z,44.12
2018-03-14T06:35:19.954Z,44.2
2018-03-14T06:36:19.931Z,44.15
2018-03-14T06:37:19.898Z,44.17
2018-03-14T06:38:19.914Z,44.23
2018-03-14T06:39:19.912Z,44.21
2018-03-14T06:40:19.899Z,44.16
2018-03-14T06:41:19.887Z,44.17
2018-03-14T06:42:19.922Z,44.1
2018-03-14T06:43:19.906Z,44.16
2018-03-14T06:44:19.904Z,44.15
2018-03-14T06:45:19.894Z,44.12
2018-03-14T06:46:19.918Z,44.1
2018-03-14T06:47:19.909Z,44.21
2018-03-14T06:48:19.881Z,44.08
2018-03-14T06:49:19.901Z,44.1
2018-03-14T06:50:19.926Z,44.14
2018-03-14T06:51:19.919Z,44.07
2018-03-14T06:52:19.939Z,44.08
2018-03-14T06:53:19.901Z,44.14
2018-03-14T06:54:19.921Z,44.11
2018-03-14T06:55:19.914Z,44.1
2018-03-14T06:56:19.920Z,44.12
2018-03-14T06:57:19.904Z,44.07
2018-03-14T06:58:19.936Z,44.1
2018-03-14T06:59:19.879Z,44.1
2018-03-14T07:00:19.922Z,44.09
2018-03-14T07:01:19.904Z,44.11
2018-03-14T07:02:19.910Z,44.11
2018-03-14T07:03:19.923Z,44.06
2018-03-14T07:04:19.907Z,44.05
2018-03-14T07:05:19.878Z,44.12
2018-03-14T07:06:19.930Z,44.03
2018-03-14T07:07:19.940Z,44.03
2018-03-14T07:08:19.890Z,44.12
2018-03-14T07:09:20.090Z,43.99
2018-03-14T07:10:19.899Z,44.1
2018-03-14T07:11:19.920Z,44.16
2018-03-14T07:12:19.918Z,44.1
2018-03-14T07:13:19.896Z,44.08
2018-03-14T07:14:19.927Z,44.13
2018-03-14T07:15:19.914Z,44.11
2018-03-14T07:16:19.882Z,44.07
2018-03-14T07:17:19.898Z,44.2
2018-03-14T07:18:19.896Z,44.05
2018-03-14T07:19:19.928Z,44.04
2018-03-14T07:20:19.878Z,44.16
2018-03-14T07:21:19.903Z,44.12
2018-03-14T07:22:19.892Z,44.09
2018-03-14T07:23:19.892Z,44.15
2018-03-14T07:24:19.818Z,44.06
2018-03-14T07:25:20.003Z,43.97
2018-03-14T07:26:19.874Z,44.21
2018-03-14T07:27:19.874Z,44.05
2018-03-14T07:28:19.882Z,44.04
2018-03-14T07:29:19.879Z,44.18
2018-03-14T07:30:19.873Z,44.12
2018-03-14T07:31:19.951Z,44.11
2018-03-14T07:32:19.912Z,44.14
2018-03-14T07:33:19.884Z,44.16
2018-03-14T07:34:19.883Z,44.12
2018-03-14T07:35:19.870Z,44.18
2018-03-14T07:36:20.115Z,44.09
2018-03-14T07:37:19.898Z,44.09
2018-03-14T07:38:19.893Z,44.1
2018-03-14T07:39:19.884Z,44.07
2018-03-14T07:40:19.852Z,44.08
2018-03-14T07:41:19.898Z,44.17
2018-03-14T07:42:19.857Z,44.14
2018-03-14T07:43:19.928Z,44.09
2018-03-14T07:44:19.879Z,44.13
2018-03-14T07:45:19.874Z,44.12
2018-03-14T07:46:19.935Z,44.12
2018-03-14T07:47:19.863Z,44.17
2018-03-14T07:48:19.883Z,44.09
2018-03-14T07:49:19.894Z,44.16
2018-03-14T07:50:19.884Z,44.15
2018-03-14T07:51:19.897Z,44.07
2018-03-14T07:52:19.901Z,44.05
2018-03-14T07:53:20.015Z,44.16
2018-03-14T07:54:19.911Z,44.05
2018-03-14T07:55:19.886Z,44.09
2018-03-14T07:56:19.865Z,44.12
2018-03-14T07:57:19.861Z,44
2018-03-14T07:58:19.930Z,44.03
2018-03-14T07:59:19.887Z,44.14
2018-03-14T08:00:19.861Z,44.08
2018-03-14T08:01:19.885Z,44.01
2018-03-14T08:02:19.889Z,44.09
2018-03-14T08:03:19.866Z,44.01
2018-03-14T08:04:19.926Z,43.98
2018-03-14T08:05:19.861Z,44.1
2018-03-14T08:06:19.896Z,44.01
2018-03-14T08:07:19.907Z,44.06
2018-03-14T08:08:19.867Z,44.02
2018-03-14T08:09:19.881Z,44.01
2018-03-14T08:10:19.881Z,44.05
2018-03-14T08:11:19.898Z,44.14
2018-03-14T08:12:19.895Z,44.12
2018-03-14T08:13:20.062Z,44.06
2018-03-14T08:14:19.885Z,44.1
2018-03-14T08:15:19.857Z,44.05
2018-03-14T08:16:19.886Z,44.06
2018-03-14T08:17:19.867Z,44.06
2018-03-14T08:18:19.885Z,44.04
2018-03-14T08:19:19.898Z,43.99
2018-03-14T08:20:20.207Z,44.06
2018-03-14T08:21:20.115Z,43.98
2018-03-14T08:22:19.884Z,43.93
2018-03-14T08:23:19.922Z,44.03
2018-03-14T08:24:19.893Z,43.95
2018-03-14T08:25:19.880Z,43.92
2018-03-14T08:26:19.868Z,43.95
2018-03-14T08:27:19.873Z,43.96
2018-03-14T08:28:19.917Z,43.95
2018-03-14T08:29:19.880Z,43.95
2018-03-14T08:30:19.888Z,43.91
2018-03-14T08:31:19.881Z,43.91
2018-03-14T08:32:19.868Z,43.92
2018-03-14T08:33:19.860Z,43.96
2018-03-14T08:34:20.006Z,43.92
2018-03-14T08:35:19.886Z,43.87
2018-03-14T08:36:19.851Z,43.81
2018-03-14T08:37:19.884Z,43.89
2018-03-14T08:38:19.929Z,43.85
2018-03-14T08:39:19.846Z,43.82
2018-03-14T08:40:19.882Z,43.87
2018-03-14T08:41:19.842Z,43.9
2018-03-14T08:42:19.863Z,43.88
2018-03-14T08:43:19.872Z,43.81
2018-03-14T08:44:19.894Z,43.87
2018-03-14T08:45:19.875Z,43.8
2018-03-14T08:46:19.865Z,43.8
2018-03-14T08:47:19.849Z,43.83
2018-03-14T08:48:19.880Z,43.82
2018-03-14T08:49:19.896Z,43.78
2018-03-14T08:50:20.108Z,43.83
2018-03-14T08:51:19.863Z,43.8
2018-03-14T08:52:19.859Z,43.82
2018-03-14T08:53:19.855Z,43.82
2018-03-14T08:54:20.437Z,43.82
2018-03-14T08:55:19.868Z,43.84
2018-03-14T08:56:19.852Z,43.81
2018-03-14T08:57:19.874Z,43.87
2018-03-14T08:58:19.870Z,43.8
2018-03-14T08:59:20.096Z,43.83
2018-03-14T09:00:19.846Z,43.82
2018-03-14T09:01:19.869Z,43.74
2018-03-14T09:02:19.838Z,43.81
2018-03-14T09:03:19.877Z,43.75
2018-03-14T09:04:19.889Z,43.76
2018-03-14T09:05:19.889Z,43.76
2018-03-14T09:06:19.861Z,43.71
2018-03-14T09:07:20.102Z,43.72
2018-03-14T09:08:19.872Z,43.84
2018-03-14T09:09:19.903Z,43.74
2018-03-14T09:10:19.859Z,43.8
2018-03-14T09:11:19.862Z,43.89
2018-03-14T09:12:19.846Z,43.79
2018-03-14T09:13:19.850Z,43.8
2018-03-14T09:14:19.993Z,43.77
2018-03-14T09:15:19.854Z,43.81
2018-03-14T09:16:19.883Z,43.77
2018-03-14T09:17:19.873Z,43.77
2018-03-14T09:18:19.829Z,43.75
2018-03-14T09:19:20.169Z,43.7
2018-03-14T09:20:19.837Z,43.84
2018-03-14T09:21:20.258Z,43.72
2018-03-14T09:22:19.845Z,43.79
2018-03-14T09:23:19.913Z,43.83
2018-03-14T09:24:19.870Z,43.76
2018-03-14T09:25:19.971Z,43.77
2018-03-14T09:26:19.934Z,43.82
2018-03-14T09:27:19.884Z,43.76
2018-03-14T09:28:19.845Z,43.72
2018-03-14T09:29:19.867Z,43.77
2018-03-14T09:30:19.855Z,43.68
2018-03-14T09:31:19.863Z,43.75
2018-03-14T09:32:19.834Z,43.76
2018-03-14T09:33:20.376Z,43.71
2018-03-14T09:34:19.867Z,43.7
2018-03-14T09:35:19.858Z,43.79
2018-03-14T09:36:19.864Z,43.76
2018-03-14T09:37:19.863Z,43.76
2018-03-14T09:38:19.912Z,43.77
2018-03-14T09:39:19.865Z,43.78
2018-03-14T09:40:19.851Z,43.79
2018-03-14T09:41:19.888Z,43.79
2018-03-14T09:42:19.878Z,43.73
2018-03-14T09:43:19.836Z,43.75
2018-03-14T09:44:19.885Z,43.75
2018-03-14T09:45:20.252Z,43.71
2018-03-14T09:46:19.870Z,43.71
2018-03-14T09:47:19.878Z,43.78
2018-03-14T09:48:19.838Z,43.73
2018-03-14T09:49:19.870Z,43.73
2018-03-14T09:50:19.846Z,43.78
2018-03-14T09:51:19.855Z,43.72
2018-03-14T09:52:19.861Z,43.71
2018-03-14T09:53:19.833Z,43.79
2018-03-14T09:54:19.826Z,43.72
2018-03-14T09:55:19.876Z,43.7
2018-03-14T09:56:19.868Z,43.75
2018-03-14T09:57:19.830Z,43.67
2018-03-14T09:58:19.869Z,43.67
2018-03-14T09:59:19.889Z,43.81
2018-03-14T10:00:19.919Z,43.72
2018-03-14T10:01:19.887Z,43.7
2018-03-14T10:02:19.886Z,43.77
2018-03-14T10:03:19.837Z,43.71
2018-03-14T10:04:19.841Z,43.7
2018-03-14T10:05:19.859Z,43.72
2018-03-14T10:06:19.983Z,43.73
2018-03-14T10:07:19.860Z,43.67
2018-03-14T10:08:19.832Z,43.69
2018-03-14T10:09:19.818Z,43.65
2018-03-14T10:10:19.867Z,43.7
2018-03-14T10:11:19.865Z,43.68
2018-03-14T10:12:19.908Z,43.65
2018-03-14T10:13:19.852Z,43.68
2018-03-14T10:14:19.834Z,43.74
2018-03-14T10:15:19.855Z,43.64
2018-03-14T10:16:19.853Z,43.67
2018-03-14T10:17:19.853Z,43.65
2018-03-14T10:18:19.830Z,43.6
2018-03-14T10:19:19.907Z,43.69
2018-03-14T10:20:19.849Z,43.79
2018-03-14T10:21:19.908Z,43.75
2018-03-14T10:22:20.061Z,43.7
2018-03-14T10:23:19.832Z,43.89
2018-03-14T10:24:19.830Z,43.75
2018-03-14T10:25:19.828Z,43.69
2018-03-14T10:26:19.850Z,43.81
2018-03-14T10:27:19.846Z,43.75
2018-03-14T10:28:19.833Z,43.72
2018-03-14T10:29:19.855Z,43.78
2018-03-14T10:30:19.842Z,43.75
2018-03-14T10:31:19.846Z,43.72
2018-03-14T10:32:19.845Z,43.99
2018-03-14T10:33:20.130Z,43.86
2018-03-14T10:34:19.850Z,43.92
2018-03-14T10:35:20.279Z,44.11
2018-03-14T10:36:19.857Z,44.06
2018-03-14T10:37:19.865Z,43.97
2018-03-14T10:38:20.104Z,44.11
2018-03-14T10:39:19.841Z,44.1
2018-03-14T10:40:19.838Z,44.21
2018-03-14T10:41:19.825Z,44.42
2018-03-14T10:42:19.827Z,44.47
2018-03-14T10:43:19.869Z,44.42
2018-03-14T10:44:19.826Z,44.57
2018-03-14T10:45:19.853Z,44.52
2018-03-14T10:46:19.824Z,44.5
2018-03-14T10:47:19.822Z,44.69
2018-03-14T10:48:19.870Z,44.51
2018-03-14T10:49:19.833Z,44.48
2018-03-14T10:50:19.817Z,44.63
2018-03-14T10:51:19.822Z,44.54
2018-03-14T10:52:19.837Z,44.49
2018-03-14T10:53:19.954Z,44.69
2018-03-14T10:54:19.832Z,44.63
2018-03-14T10:55:19.836Z,44.59
2018-03-14T10:56:19.813Z,44.52
2018-03-14T10:57:19.843Z,44.47
2018-03-14T10:58:19.858Z,44.47
2018-03-14T10:59:19.835Z,44.45
2018-03-14T11:00:19.825Z,44.41
2018-03-14T11:01:19.825Z,44.36
2018-03-14T11:02:19.822Z,44.33
2018-03-14T11:03:19.833Z,44.25
2018-03-14T11:04:19.846Z,44.2
2018-03-14T11:05:19.819Z,44.22
2018-03-14T11:06:19.838Z,44.13
2018-03-14T11:07:19.846Z,44.14
2018-03-14T11:08:19.877Z,44.16
2018-03-14T11:09:19.830Z,44.13
2018-03-14T11:10:19.854Z,43.98
2018-03-14T11:11:19.799Z,44.07
2018-03-14T11:12:19.802Z,44.03
2018-03-14T11:13:19.820Z,44.01
2018-03-14T11:14:19.833Z,44.06
2018-03-14T11:15:19.872Z,43.98
2018-03-14T11:16:19.834Z,43.98
2018-03-14T11:17:19.859Z,44.05
2018-03-14T11:18:19.836Z,43.97
2018-03-14T11:19:19.847Z,43.95
2018-03-14T11:20:20.371Z,44.03
2018-03-14T11:21:19.821Z,43.94
2018-03-14T11:22:19.815Z,43.88
2018-03-14T11:23:19.801Z,43.97
2018-03-14T11:24:19.823Z,43.86
2018-03-14T11:25:19.827Z,43.88
2018-03-14T11:26:19.921Z,43.92
2018-03-14T11:27:19.925Z,43.88
2018-03-14T11:28:19.828Z,43.87
2018-03-14T11:29:19.822Z,43.9
2018-03-14T11:30:19.875Z,43.8
2018-03-14T11:31:19.801Z,43.84
2018-03-14T11:32:19.795Z,43.9
2018-03-14T11:33:19.861Z,43.86
2018-03-14T11:34:19.819Z,43.83
2018-03-14T11:35:19.830Z,43.82
2018-03-14T11:36:19.807Z,43.83
2018-03-14T11:37:19.833Z,43.81
2018-03-14T11:38:19.797Z,43.8
2018-03-14T11:39:19.825Z,43.81
2018-03-14T11:40:19.840Z,43.79
2018-03-14T11:41:19.821Z,43.78
2018-03-14T11:42:20.259Z,43.78
2018-03-14T11:43:19.837Z,43.78
2018-03-14T11:44:19.825Z,43.76
2018-03-14T11:45:19.793Z,43.79
2018-03-14T11:46:19.826Z,43.73
2018-03-14T11:47:19.829Z,43.78
2018-03-14T11:48:19.832Z,43.77
2018-03-14T11:49:19.810Z,43.72
2018-03-14T11:50:19.800Z,43.78
2018-03-14T11:51:19.801Z,43.72
2018-03-14T11:52:19.849Z,43.72
2018-03-14T11:53:19.790Z,43.74
2018-03-14T11:54:19.838Z,43.73
2018-03-14T11:55:19.810Z,43.75
2018-03-14T11:56:19.814Z,43.77
2018-03-14T11:57:20.332Z,43.73
2018-03-14T11:58:19.805Z,43.76
2018-03-14T11:59:19.844Z,43.78
2018-03-14T12:00:19.828Z,43.7
2018-03-14T12:01:19.823Z,43.79
2018-03-14T12:02:19.821Z,43.75
2018-03-14T12:03:19.824Z,43.77
2018-03-14T12:04:19.805Z,43.74
2018-03-14T12:05:19.791Z,43.77
2018-03-14T12:06:19.790Z,43.77
2018-03-14T12:07:19.927Z,43.73
2018-03-14T12:08:19.822Z,43.79
2018-03-14T12:09:19.788Z,43.76
2018-03-14T12:10:20.211Z,43.74
2018-03-14T12:11:19.835Z,43.74
2018-03-14T12:12:20.255Z,43.76
2018-03-14T12:13:19.820Z,43.74
2018-03-14T12:14:19.830Z,43.79
2018-03-14T12:15:19.781Z,43.8
2018-03-14T12:16:19.806Z,43.76
2018-03-14T12:17:19.789Z,43.76
2018-03-14T12:18:19.838Z,43.74
2018-03-14T12:19:19.779Z,43.7
2018-03-14T12:20:19.810Z,43.79
2018-03-14T12:21:19.792Z,43.72
2018-03-14T12:22:19.852Z,43.68
2018-03-14T12:23:19.837Z,43.74
2018-03-14T12:24:19.800Z,43.68
2018-03-14T12:25:19.796Z,43.68
2018-03-14T12:26:20.215Z,43.72
2018-03-14T12:27:19.774Z,43.74
2018-03-14T12:28:20.386Z,43.73
2018-03-14T12:29:19.847Z,43.68
2018-03-14T12:30:20.123Z,43.7
2018-03-14T12:31:19.804Z,43.68
2018-03-14T12:32:19.825Z,43.65
2018-03-14T12:33:19.797Z,43.68
2018-03-14T12:34:19.834Z,43.65
2018-03-14T12:35:19.808Z,43.64
2018-03-14T12:36:19.774Z,43.6
2018-03-14T12:37:19.821Z,43.65
2018-03-14T12:38:19.773Z,43.63
2018-03-14T12:39:20.326Z,43.59
2018-03-14T12:40:19.849Z,43.63
2018-03-14T12:41:19.834Z,43.68
2018-03-14T12:42:19.810Z,43.61
2018-03-14T12:43:19.791Z,43.64
2018-03-14T12:44:19.803Z,43.61
2018-03-14T12:45:19.795Z,43.62
2018-03-14T12:46:19.783Z,43.6
2018-03-14T12:47:19.777Z,43.62
2018-03-14T12:48:19.820Z,43.57
2018-03-14T12:49:19.824Z,43.6
2018-03-14T12:50:19.787Z,43.67
2018-03-14T12:51:19.808Z,43.59
2018-03-14T12:52:19.823Z,43.56
2018-03-14T12:53:19.803Z,43.6
2018-03-14T12:54:19.796Z,43.59
2018-03-14T12:55:19.811Z,43.62